createdAt,value
2018-12-15T00:00:02.021Z,-4.50
2018-12-15T00:02:29.628Z,-4.54
2018-12-15T00:04:57.635Z,-4.47
2018-12-15T00:07:25.239Z,-4.50
2018-12-15T00:09:53.728Z,-4.61
2018-12-15T00:12:21.410Z,-4.57
2018-12-15T00:14:49.160Z,-4.60
2018-12-15T00:17:16.807Z,-4.66
2018-12-15T00:19:45.276Z,-4.80
2018-12-15T00:22:13.567Z,-4.78
2018-12-15T00:24:41.454Z,-4.59
2018-12-15T00:27:09.076Z,-4.48
2018-12-15T00:29:36.838Z,-4.54
2018-12-15T00:32:04.665Z,-4.73
2018-12-15T00:34:32.254Z,-4.47
2018-12-15T00:37:00.089Z,-4.43
2018-12-15T00:39:27.953Z,-4.41
2018-12-15T00:41:55.833Z,-4.40
2018-12-15T00:44:23.488Z,-4.44
2018-12-15T00:46:51.207Z,-4.44
2018-12-15T00:49:18.861Z,-4.47
2018-12-15T00:51:46.479Z,-4.61
2018-12-15T00:54:14.124Z,-4.50
2018-12-15T00:56:41.823Z,-4.61
2018-12-15T00:59:09.390Z,-4.53
2018-12-15T01:01:37.199Z,-4.43
2018-12-15T01:04:04.802Z,-4.46
2018-12-15T01:06:32.505Z,-4.40
2018-12-15T01:09:00.648Z,-4.41
2018-12-15T01:11:28.405Z,-4.35
2018-12-15T01:13:56.316Z,-4.42
2018-12-15T01:16:23.961Z,-4.36
2018-12-15T01:18:51.772Z,-4.68
2018-12-15T01:21:19.533Z,-4.73
2018-12-15T01:23:47.111Z,-4.78
2018-12-15T01:26:14.756Z,-4.77
2018-12-15T01:28:42.357Z,-4.93
2018-12-15T01:31:09.988Z,-4.78
2018-12-15T01:33:37.633Z,-4.65
2018-12-15T01:36:05.211Z,-4.61
2018-12-15T01:38:32.997Z,-4.62
2018-12-15T01:41:00.622Z,-4.60
2018-12-15T01:43:28.261Z,-5.29
2018-12-15T01:45:55.903Z,-4.59
2018-12-15T01:48:23.785Z,-4.59
2018-12-15T01:50:51.452Z,-4.65
2018-12-15T01:53:19.022Z,-4.78
2018-12-15T01:55:46.655Z,-4.74
2018-12-15T01:58:14.291Z,-4.73
2018-12-15T02:00:41.934Z,-4.69
2018-12-15T02:03:09.731Z,-4.66
2018-12-15T02:05:37.350Z,-4.59
2018-12-15T02:08:04.980Z,-4.54
2018-12-15T02:10:32.564Z,-4.56
2018-12-15T02:13:00.218Z,-4.50
2018-12-15T02:15:27.852Z,-4.49
2018-12-15T02:17:55.679Z,-4.51
2018-12-15T02:20:23.447Z,-4.59
2018-12-15T02:22:51.311Z,-4.54
2018-12-15T02:25:18.918Z,-4.60
2018-12-15T02:27:46.545Z,-4.69
2018-12-15T02:30:14.156Z,-4.57
2018-12-15T02:32:41.789Z,-4.47
2018-12-15T02:35:09.426Z,-4.39
2018-12-15T02:37:37.107Z,-4.43
2018-12-15T02:40:05.762Z,-4.37
2018-12-15T02:42:33.475Z,-4.37
2018-12-15T02:45:01.059Z,-4.38
2018-12-15T02:47:28.628Z,-4.55
2018-12-15T02:49:56.927Z,-4.41
2018-12-15T02:52:24.513Z,-4.38
2018-12-15T02:54:52.155Z,-4.51
2018-12-15T02:57:19.842Z,-4.41
2018-12-15T02:59:47.433Z,-4.35
2018-12-15T03:02:15.240Z,-4.39
2018-12-15T03:04:43.018Z,-4.42
2018-12-15T03:07:10.632Z,-4.38
2018-12-15T03:09:38.427Z,-4.42
2018-12-15T03:12:06.225Z,-4.44
2018-12-15T03:14:33.872Z,-4.44
2018-12-15T03:17:04.173Z,-4.40
2018-12-15T03:19:32.667Z,-4.42
2018-12-15T03:22:00.534Z,-4.47
2018-12-15T03:24:28.221Z,-4.55
2018-12-15T03:26:55.869Z,-4.49
2018-12-15T03:29:23.592Z,-4.48
2018-12-15T03:31:51.241Z,-4.52
2018-12-15T03:34:18.905Z,-4.53
2018-12-15T03:36:46.545Z,-4.76
2018-12-15T03:39:14.326Z,-4.72
2018-12-15T03:41:41.966Z,-4.80
2018-12-15T03:44:09.566Z,-4.82
2018-12-15T03:46:37.198Z,-4.73
2018-12-15T03:49:04.832Z,-4.69
2018-12-15T03:51:32.553Z,-4.76
2018-12-15T03:54:00.187Z,-4.72
2018-12-15T03:56:27.773Z,-4.66
2018-12-15T03:58:55.410Z,-4.63
2018-12-15T04:01:22.994Z,-4.60
2018-12-15T04:03:50.597Z,-4.56
2018-12-15T04:06:18.225Z,-4.54
2018-12-15T04:08:45.856Z,-4.54
2018-12-15T04:11:13.427Z,-4.51
2018-12-15T04:13:41.082Z,-4.56
2018-12-15T04:16:08.720Z,-4.64
2018-12-15T04:18:36.313Z,-4.50
2018-12-15T04:21:04.016Z,-4.47
2018-12-15T04:23:31.599Z,-4.47
2018-12-15T04:25:59.235Z,-4.49
2018-12-15T04:28:26.851Z,-4.43
2018-12-15T04:30:54.482Z,-4.44
2018-12-15T04:33:22.137Z,-4.47
2018-12-15T04:35:49.705Z,-4.42
2018-12-15T04:38:17.345Z,-4.36
2018-12-15T04:40:44.968Z,-4.35
2018-12-15T04:43:12.643Z,-4.29
2018-12-15T04:45:40.313Z,-4.34
2018-12-15T04:48:11.339Z,-4.30
2018-12-15T04:50:37.557Z,-4.46
2018-12-15T04:53:05.294Z,-4.62
2018-12-15T04:55:32.868Z,-4.51
2018-12-15T04:58:00.521Z,-4.62
2018-12-15T05:00:28.133Z,-4.68
2018-12-15T05:02:55.715Z,-4.50
2018-12-15T05:05:23.368Z,-4.49
2018-12-15T05:07:50.946Z,-4.43
2018-12-15T05:10:18.550Z,-4.43
2018-12-15T05:12:46.217Z,-4.41
2018-12-15T05:15:13.809Z,-4.41
2018-12-15T05:17:41.688Z,-4.37
2018-12-15T05:20:09.338Z,-4.56
2018-12-15T05:22:37.143Z,-4.57
2018-12-15T05:25:05.427Z,-4.58
2018-12-15T05:27:33.012Z,-4.42
2018-12-15T05:30:00.582Z,-4.41
2018-12-15T05:32:28.196Z,-4.45
2018-12-15T05:34:55.814Z,-4.39
2018-12-15T05:37:23.455Z,-4.40
2018-12-15T05:39:51.077Z,-4.56
2018-12-15T05:42:18.707Z,-4.51
2018-12-15T05:44:46.291Z,-4.42
2018-12-15T05:47:13.937Z,-4.40
2018-12-15T05:49:41.523Z,-4.35
2018-12-15T05:52:09.262Z,-4.37
2018-12-15T05:54:36.902Z,-4.44
2018-12-15T05:57:04.515Z,-4.43
2018-12-15T05:59:32.284Z,-4.37
2018-12-15T06:02:01.557Z,-4.50
2018-12-15T06:04:29.205Z,-4.60
2018-12-15T06:06:56.781Z,-4.52
2018-12-15T06:09:24.460Z,-4.51
2018-12-15T06:11:52.090Z,-4.63
2018-12-15T06:14:19.763Z,-4.66
2018-12-15T06:16:47.333Z,-4.67
2018-12-15T06:19:14.959Z,-4.65
2018-12-15T06:21:42.548Z,-4.58
2018-12-15T06:24:10.245Z,-4.61
2018-12-15T06:26:37.905Z,-4.60
2018-12-15T06:29:05.548Z,-4.66
2018-12-15T06:31:33.126Z,-4.66
2018-12-15T06:34:00.754Z,-4.59
2018-12-15T06:36:28.425Z,-4.66
2018-12-15T06:38:56.055Z,-4.75
2018-12-15T06:41:23.693Z,-4.74
2018-12-15T06:43:51.311Z,-4.61
2018-12-15T06:46:18.982Z,-4.65
2018-12-15T06:48:46.612Z,-4.78
2018-12-15T06:51:14.389Z,-4.80
2018-12-15T06:53:41.954Z,-4.69
2018-12-15T06:56:09.609Z,-4.75
2018-12-15T06:58:37.256Z,-4.82
2018-12-15T07:01:04.888Z,-4.68
2018-12-15T07:03:32.531Z,-4.65
2018-12-15T07:06:00.804Z,-4.68
2018-12-15T07:08:28.533Z,-4.57
2018-12-15T07:10:56.506Z,-4.48
2018-12-15T07:13:24.213Z,-4.42
2018-12-15T07:15:52.072Z,-4.53
2018-12-15T07:18:19.798Z,-4.50
2018-12-15T07:20:47.568Z,-4.52
2018-12-15T07:23:15.330Z,-4.56
2018-12-15T07:25:43.252Z,-4.46
2018-12-15T07:28:10.912Z,-4.38
2018-12-15T07:30:38.698Z,-4.30
2018-12-15T07:33:06.506Z,-4.46
2018-12-15T07:35:34.151Z,-4.46
2018-12-15T07:38:01.917Z,-4.31
2018-12-15T07:40:30.932Z,-4.20
2018-12-15T07:42:59.139Z,-4.16
2018-12-15T07:45:26.922Z,-4.17
2018-12-15T07:47:54.618Z,-4.10
2018-12-15T07:50:22.356Z,-4.04
2018-12-15T07:52:50.154Z,-4.06
2018-12-15T07:55:18.136Z,-3.88
2018-12-15T07:57:45.983Z,-3.87
2018-12-15T08:00:13.670Z,-3.74
2018-12-15T08:02:41.369Z,-3.61
2018-12-15T08:05:09.037Z,-3.53
2018-12-15T08:07:37.653Z,-3.48
2018-12-15T08:10:06.591Z,-3.41
2018-12-15T08:12:39.440Z,-3.39
2018-12-15T08:15:07.670Z,-3.30
2018-12-15T08:17:35.441Z,-3.30
2018-12-15T08:20:04.255Z,-3.37
2018-12-15T08:22:32.035Z,-3.62
2018-12-15T08:24:59.718Z,-3.66
2018-12-15T08:27:27.825Z,-3.74
2018-12-15T08:29:56.045Z,-3.74
2018-12-15T08:32:23.993Z,-3.66
2018-12-15T08:34:51.654Z,-3.40
2018-12-15T08:37:19.310Z,-3.33
2018-12-15T08:39:47.064Z,-3.31
2018-12-15T08:42:14.857Z,-3.25
2018-12-15T08:44:42.535Z,-3.26
2018-12-15T08:47:10.389Z,-3.16
2018-12-15T08:49:39.467Z,-3.11
2018-12-15T08:52:07.365Z,-3.05
2018-12-15T08:54:35.076Z,-3.15
2018-12-15T08:57:02.663Z,-3.08
2018-12-15T08:59:30.339Z,-3.05
2018-12-15T09:01:58.196Z,-3.12
2018-12-15T09:04:25.841Z,-2.98
2018-12-15T09:06:53.640Z,-3.03
2018-12-15T09:09:21.510Z,-2.76
2018-12-15T09:11:49.781Z,-2.58
2018-12-15T09:14:17.437Z,-2.42
2018-12-15T09:16:45.421Z,-2.25
2018-12-15T09:19:14.267Z,-2.18
2018-12-15T09:21:42.176Z,-2.28
2018-12-15T09:24:09.855Z,-2.19
2018-12-15T09:26:37.510Z,-2.00
2018-12-15T09:29:05.138Z,-2.21
2018-12-15T09:31:33.410Z,-2.38
2018-12-15T09:34:01.070Z,-2.27
2018-12-15T09:36:28.751Z,-2.51
2018-12-15T09:38:56.330Z,-2.32
2018-12-15T09:41:24.164Z,-2.01
2018-12-15T09:43:51.908Z,-1.68
2018-12-15T09:46:19.788Z,-1.60
2018-12-15T09:48:47.448Z,-1.55
2018-12-15T09:51:16.256Z,-1.03
2018-12-15T09:53:44.923Z,-1.70
2018-12-15T09:56:13.570Z,-1.64
2018-12-15T09:58:41.550Z,-1.85
2018-12-15T10:01:09.345Z,-2.08
2018-12-15T10:03:37.100Z,-1.89
2018-12-15T10:06:04.799Z,-1.41
2018-12-15T10:08:32.612Z,-0.90
2018-12-15T10:11:00.298Z,-1.05
2018-12-15T10:13:28.222Z,-0.95
2018-12-15T10:15:55.960Z,-0.90
2018-12-15T10:18:24.030Z,-0.80
2018-12-15T10:20:51.785Z,-0.71
2018-12-15T10:23:19.456Z,-0.68
2018-12-15T10:25:47.198Z,-0.31
2018-12-15T10:28:14.951Z,-0.42
2018-12-15T10:30:48.132Z,-0.99
2018-12-15T10:33:15.912Z,-1.26
2018-12-15T10:35:43.530Z,-0.86
2018-12-15T10:38:11.201Z,-0.64
2018-12-15T10:40:38.783Z,-0.74
2018-12-15T10:43:06.582Z,-1.34
2018-12-15T10:45:34.178Z,-1.11
2018-12-15T10:48:03.048Z,-1.16
2018-12-15T10:50:30.812Z,-1.45
2018-12-15T10:52:58.678Z,-1.62
2018-12-15T10:55:27.554Z,-1.49
2018-12-15T10:57:55.238Z,-1.59
2018-12-15T11:00:26.680Z,-1.40
2018-12-15T11:02:54.495Z,-1.49
2018-12-15T11:05:22.226Z,-1.47
2018-12-15T11:07:49.908Z,-1.37
2018-12-15T11:10:17.848Z,-1.27
2018-12-15T11:12:45.508Z,-1.32
2018-12-15T11:15:13.331Z,-1.08
2018-12-15T11:17:40.909Z,-1.03
2018-12-15T11:20:08.702Z,-0.81
2018-12-15T11:22:38.309Z,-1.00
2018-12-15T11:25:06.080Z,-1.11
2018-12-15T11:27:33.939Z,-0.94
2018-12-15T11:30:01.820Z,-0.86
2018-12-15T11:32:29.572Z,-0.70
2018-12-15T11:34:57.230Z,-0.57
2018-12-15T11:37:24.877Z,-0.70
2018-12-15T11:39:52.454Z,-0.85
2018-12-15T11:42:20.106Z,-0.84
2018-12-15T11:44:47.736Z,-0.74
2018-12-15T11:47:15.541Z,-0.69
2018-12-15T11:49:43.713Z,-0.73
2018-12-15T11:52:11.795Z,-0.74
2018-12-15T11:54:39.414Z,-0.71
2018-12-15T11:57:07.031Z,-0.87
2018-12-15T11:59:34.679Z,-0.78
2018-12-15T12:02:02.346Z,-0.95
2018-12-15T12:04:29.953Z,-0.86
2018-12-15T12:06:57.593Z,-0.62
2018-12-15T12:09:25.431Z,-0.69
2018-12-15T12:11:53.282Z,-0.75
2018-12-15T12:14:20.912Z,-0.58
2018-12-15T12:16:48.534Z,-0.76
2018-12-15T12:19:16.192Z,-0.70
2018-12-15T12:21:44.046Z,-0.61
2018-12-15T12:24:11.669Z,-0.58
2018-12-15T12:26:39.308Z,-0.55
2018-12-15T12:29:06.932Z,-0.58
2018-12-15T12:31:34.800Z,-0.53
2018-12-15T12:34:02.430Z,-0.52
2018-12-15T12:36:30.059Z,-0.62
2018-12-15T12:38:57.732Z,-0.68
2018-12-15T12:41:26.362Z,-0.63
2018-12-15T12:43:54.083Z,-0.51
2018-12-15T12:46:21.767Z,-0.41
2018-12-15T12:48:49.443Z,-0.50
2018-12-15T12:51:17.034Z,-0.49
2018-12-15T12:53:45.871Z,-0.49
2018-12-15T12:56:13.698Z,-0.71
2018-12-15T12:58:41.440Z,-0.63
2018-12-15T13:01:09.413Z,-0.69
2018-12-15T13:03:37.220Z,-0.79
2018-12-15T13:06:04.914Z,-0.64
2018-12-15T13:08:32.564Z,-0.68
2018-12-15T13:11:00.182Z,-0.74
2018-12-15T13:13:28.836Z,-0.65
2018-12-15T13:15:56.516Z,-0.73
2018-12-15T13:18:24.279Z,-0.74
2018-12-15T13:20:52.088Z,-0.73
2018-12-15T13:23:20.008Z,-0.73
2018-12-15T13:25:47.634Z,-0.78
2018-12-15T13:28:15.267Z,-0.86
2018-12-15T13:30:43.317Z,-0.84
2018-12-15T13:33:22.847Z,-0.86
2018-12-15T13:35:50.513Z,-0.84
2018-12-15T13:38:18.177Z,-1.04
2018-12-15T13:40:45.891Z,-1.22
2018-12-15T13:43:13.704Z,-1.25
2018-12-15T13:45:42.307Z,-1.18
2018-12-15T13:48:09.963Z,-1.20
2018-12-15T13:50:37.563Z,-1.31
2018-12-15T13:53:05.261Z,-1.39
2018-12-15T13:55:32.910Z,-1.33
2018-12-15T13:58:00.696Z,-1.39
2018-12-15T14:00:28.562Z,-1.31
2018-12-15T14:02:56.329Z,-1.26
2018-12-15T14:05:23.930Z,-1.15
2018-12-15T14:07:52.332Z,-1.25
2018-12-15T14:10:20.058Z,-1.46
2018-12-15T14:12:47.795Z,-1.49
2018-12-15T14:15:15.424Z,-1.42
2018-12-15T14:17:43.212Z,-1.42
2018-12-15T14:20:16.578Z,-1.31
2018-12-15T14:22:40.805Z,-1.25
2018-12-15T14:25:08.482Z,-1.35
2018-12-15T14:27:36.156Z,-1.43
2018-12-15T14:30:04.991Z,-1.44
2018-12-15T14:32:32.643Z,-1.47
2018-12-15T14:35:00.557Z,-1.53
2018-12-15T14:37:29.967Z,-1.54
2018-12-15T14:39:57.817Z,-1.49
2018-12-15T14:42:25.791Z,-1.62
2018-12-15T14:44:53.985Z,-1.66
2018-12-15T14:47:21.905Z,-1.68
2018-12-15T14:49:49.553Z,-1.64
2018-12-15T14:52:17.222Z,-1.73
2018-12-15T14:54:44.942Z,-1.90
2018-12-15T14:57:12.692Z,-1.89
2018-12-15T14:59:41.232Z,-1.90
2018-12-15T15:02:09.334Z,-1.91
2018-12-15T15:04:41.120Z,-1.92
2018-12-15T15:07:11.173Z,-1.95
2018-12-15T15:09:39.023Z,-1.99
2018-12-15T15:12:06.715Z,-1.97
2018-12-15T15:14:34.965Z,-2.00
2018-12-15T15:17:06.442Z,-2.03
2018-12-15T15:19:34.724Z,-2.09
2018-12-15T15:22:02.731Z,-2.15
2018-12-15T15:24:30.430Z,-2.18
2018-12-15T15:26:59.235Z,-2.38
2018-12-15T15:29:27.058Z,-2.41
2018-12-15T15:31:54.890Z,-2.57
2018-12-15T15:34:22.726Z,-2.65
2018-12-15T15:36:50.492Z,-2.69
2018-12-15T15:39:18.512Z,-2.79
2018-12-15T15:41:48.093Z,-2.77
2018-12-15T15:44:15.834Z,-2.82
2018-12-15T15:46:43.580Z,-2.85
2018-12-15T15:49:11.510Z,-3.01
2018-12-15T15:51:39.128Z,-3.04
2018-12-15T15:54:06.904Z,-2.94
2018-12-15T15:56:34.611Z,-2.85
2018-12-15T15:59:02.235Z,-2.87
2018-12-15T16:01:29.941Z,-2.83
2018-12-15T16:03:57.673Z,-2.82
2018-12-15T16:06:25.259Z,-2.78
2018-12-15T16:08:52.982Z,-2.89
2018-12-15T16:11:21.659Z,-2.96
2018-12-15T16:13:49.375Z,-2.88
2018-12-15T16:16:28.829Z,-2.85
2018-12-15T16:18:56.559Z,-2.77
2018-12-15T16:21:24.295Z,-2.86
2018-12-15T16:23:51.933Z,-2.97
2018-12-15T16:26:19.707Z,-2.84
2018-12-15T16:28:47.431Z,-2.75
2018-12-15T16:31:15.382Z,-2.74
2018-12-15T16:33:43.071Z,-2.69
2018-12-15T16:36:10.822Z,-2.90
2018-12-15T16:38:38.566Z,-2.97
2018-12-15T16:41:06.393Z,-3.06
2018-12-15T16:43:34.789Z,-3.08
2018-12-15T16:46:02.416Z,-3.12
2018-12-15T16:48:30.136Z,-3.09
2018-12-15T16:50:58.127Z,-3.10
2018-12-15T16:53:25.908Z,-3.14
2018-12-15T16:55:53.635Z,-3.19
2018-12-15T16:58:21.786Z,-3.28
2018-12-15T17:00:49.773Z,-3.44
2018-12-15T17:03:17.548Z,-3.50
2018-12-15T17:05:45.375Z,-3.60
2018-12-15T17:08:13.377Z,-3.68
2018-12-15T17:10:41.081Z,-3.62
2018-12-15T17:13:08.728Z,-3.64
2018-12-15T17:15:36.546Z,-3.52
2018-12-15T17:18:04.259Z,-3.49
2018-12-15T17:20:32.057Z,-3.44
2018-12-15T17:22:59.666Z,-3.42
2018-12-15T17:25:28.123Z,-3.50
2018-12-15T17:27:55.924Z,-3.62
2018-12-15T17:30:23.791Z,-3.58
2018-12-15T17:32:53.567Z,-3.57
2018-12-15T17:35:22.442Z,-3.56
2018-12-15T17:37:51.161Z,-3.67
2018-12-15T17:40:18.859Z,-3.70
2018-12-15T17:42:46.762Z,-3.67
2018-12-15T17:45:15.159Z,-3.69
2018-12-15T17:47:42.981Z,-3.72
2018-12-15T17:50:10.943Z,-3.77
2018-12-15T17:52:38.976Z,-3.78
2018-12-15T17:55:07.063Z,-3.77
2018-12-15T17:57:36.080Z,-3.75
2018-12-15T18:00:06.614Z,-3.80
2018-12-15T18:02:34.434Z,-4.06
2018-12-15T18:05:02.678Z,-4.05
2018-12-15T18:07:30.364Z,-4.11
2018-12-15T18:09:58.682Z,-4.23
2018-12-15T18:12:26.447Z,-4.13
2018-12-15T18:14:54.200Z,-4.07
2018-12-15T18:17:21.956Z,-3.96
2018-12-15T18:19:49.768Z,-4.04
2018-12-15T18:22:17.412Z,-4.08
2018-12-15T18:24:45.114Z,-4.15
2018-12-15T18:27:12.802Z,-4.10
2018-12-15T18:29:40.445Z,-4.10
2018-12-15T18:32:08.675Z,-4.08
2018-12-15T18:34:36.285Z,-4.08
2018-12-15T18:37:04.065Z,-4.08
2018-12-15T18:39:32.064Z,-4.11
2018-12-15T18:41:59.830Z,-4.19
2018-12-15T18:44:28.694Z,-4.17
2018-12-15T18:46:56.795Z,-4.18
2018-12-15T18:49:24.591Z,-4.13
2018-12-15T18:51:53.561Z,-4.14
2018-12-15T18:54:24.297Z,-4.19
2018-12-15T18:56:53.165Z,-4.30
2018-12-15T18:59:21.966Z,-4.37
2018-12-15T19:01:50.838Z,-4.35
2018-12-15T19:04:18.723Z,-4.45
2018-12-15T19:06:47.260Z,-4.53
2018-12-15T19:09:15.411Z,-4.78
2018-12-15T19:11:46.806Z,-4.76
2018-12-15T19:14:15.164Z,-4.80
2018-12-15T19:16:42.907Z,-4.92
2018-12-15T19:19:10.567Z,-4.77
2018-12-15T19:21:38.249Z,-4.82
2018-12-15T19:24:06.941Z,-4.74
2018-12-15T19:26:34.639Z,-4.95
2018-12-15T19:29:02.348Z,-4.88
2018-12-15T19:31:29.953Z,-4.86
2018-12-15T19:33:57.705Z,-4.84
2018-12-15T19:36:25.598Z,-4.79
2018-12-15T19:38:54.706Z,-4.98
2018-12-15T19:41:22.539Z,-5.03
2018-12-15T19:43:51.207Z,-5.11
2018-12-15T19:46:18.861Z,-5.15
2018-12-15T19:48:46.594Z,-5.29
2018-12-15T19:51:14.391Z,-5.43
2018-12-15T19:53:42.179Z,-5.61
2018-12-15T19:56:09.905Z,-5.65
2018-12-15T19:58:37.616Z,-5.83
2018-12-15T20:01:05.220Z,-5.80
2018-12-15T20:03:33.032Z,-5.90
2018-12-15T20:06:00.754Z,-6.01
2018-12-15T20:08:28.348Z,-6.07
2018-12-15T20:10:56.173Z,-6.14
2018-12-15T20:13:24.660Z,-6.21
2018-12-15T20:15:52.350Z,-6.05
2018-12-15T20:18:21.270Z,-6.04
2018-12-15T20:20:49.177Z,-6.14
2018-12-15T20:23:16.814Z,-6.17
2018-12-15T20:25:44.512Z,-6.23
2018-12-15T20:28:12.791Z,-6.19
2018-12-15T20:30:40.701Z,-6.37
2018-12-15T20:33:08.382Z,-6.30
2018-12-15T20:35:36.196Z,-6.31
2018-12-15T20:38:03.841Z,-6.32
2018-12-15T20:40:32.725Z,-6.33
2018-12-15T20:43:00.389Z,-6.54
2018-12-15T20:45:28.079Z,-6.41
2018-12-15T20:47:55.748Z,-6.45
2018-12-15T20:50:23.428Z,-6.44
2018-12-15T20:52:51.262Z,-6.50
2018-12-15T20:55:19.028Z,-6.46
2018-12-15T20:57:46.728Z,-6.52
2018-12-15T21:00:14.394Z,-6.48
2018-12-15T21:02:44.080Z,-6.36
2018-12-15T21:05:11.683Z,-6.45
2018-12-15T21:07:39.400Z,-6.52
2018-12-15T21:10:07.528Z,-6.53
2018-12-15T21:12:35.141Z,-6.46
2018-12-15T21:15:07.720Z,-6.46
2018-12-15T21:17:35.909Z,-6.56
2018-12-15T21:20:05.391Z,-6.66
2018-12-15T21:22:33.073Z,-6.71
2018-12-15T21:25:00.703Z,-6.69
2018-12-15T21:27:28.508Z,-6.54
2018-12-15T21:29:56.119Z,-6.50
2018-12-15T21:32:24.605Z,-6.38
2018-12-15T21:34:52.325Z,-6.34
2018-12-15T21:37:20.047Z,-6.31
2018-12-15T21:39:47.753Z,-6.28
2018-12-15T21:42:15.385Z,-6.30
2018-12-15T21:44:43.174Z,-6.44
2018-12-15T21:47:10.880Z,-6.53
2018-12-15T21:49:38.560Z,-6.50
2018-12-15T21:52:06.336Z,-6.51
2018-12-15T21:54:33.976Z,-6.48
2018-12-15T21:57:01.715Z,-6.52
2018-12-15T21:59:29.343Z,-6.42
2018-12-15T22:01:57.231Z,-6.52
2018-12-15T22:04:25.213Z,-6.45
2018-12-15T22:06:52.944Z,-6.51
2018-12-15T22:09:20.579Z,-6.52
2018-12-15T22:11:48.223Z,-6.68
2018-12-15T22:14:15.903Z,-6.57
2018-12-15T22:16:44.028Z,-6.56
2018-12-15T22:19:11.701Z,-6.65
2018-12-15T22:21:39.360Z,-6.62
2018-12-15T22:24:07.225Z,-6.62
2018-12-15T22:26:34.819Z,-6.65
2018-12-15T22:29:02.427Z,-6.75
2018-12-15T22:31:30.162Z,-6.74
2018-12-15T22:33:57.807Z,-6.56
2018-12-15T22:36:25.514Z,-6.73
2018-12-15T22:38:54.401Z,-6.81
2018-12-15T22:41:22.270Z,-6.91
2018-12-15T22:43:49.943Z,-6.74
2018-12-15T22:46:17.760Z,-6.65
2018-12-15T22:48:45.363Z,-6.72
2018-12-15T22:51:13.029Z,-6.71
2018-12-15T22:53:40.650Z,-6.80
2018-12-15T22:56:08.455Z,-6.83
2018-12-15T22:58:36.233Z,-6.82
2018-12-15T23:01:06.526Z,-6.89
2018-12-15T23:03:34.207Z,-7.03
2018-12-15T23:06:01.843Z,-7.08
2018-12-15T23:08:29.509Z,-7.07
2018-12-15T23:10:57.215Z,-6.95
2018-12-15T23:13:24.829Z,-6.96
2018-12-15T23:15:52.540Z,-7.00
2018-12-15T23:18:21.367Z,-7.08
2018-12-15T23:20:48.993Z,-7.18
2018-12-15T23:23:16.829Z,-6.99
2018-12-15T23:25:44.540Z,-7.17
2018-12-15T23:28:12.415Z,-7.28
2018-12-15T23:30:40.117Z,-7.44
2018-12-15T23:33:07.858Z,-7.35
2018-12-15T23:35:35.537Z,-7.24
2018-12-15T23:38:03.191Z,-7.12
2018-12-15T23:40:30.817Z,-7.41
2018-12-15T23:42:58.508Z,-7.27
2018-12-15T23:45:26.083Z,-7.41
2018-12-15T23:47:53.819Z,-7.43
2018-12-15T23:50:21.448Z,-7.49
2018-12-15T23:52:49.160Z,-7.40
2018-12-15T23:55:17.061Z,-7.54
2018-12-15T23:57:44.779Z,-7.62
